Time;durP1;ratioP1;P1;durP2;ratioP2;P2;SDS_P1;SDS_P2;PMS_P1;PMS_P2;Temp;Humidity;BMP_temperature;BMP_pressure;BME280_temperature;BME280_humidity;BME280_pressure;Samples;Min_cycle;Max_cycle;Signal;HPM_P1;HPM_P2
2022/11/01 00:01:01;;;;;;;12.13;4.15;;;;;;;14.68;91.38;100813.09;5036066;27;96771;-32
2022/11/01 00:03:26;;;;;;;7.70;3.15;;;;;;;14.67;91.64;100807.78;5033618;27;99561;-31
2022/11/01 00:05:52;;;;;;;12.00;3.40;;;;;;;14.68;91.19;100810.34;5035215;28;115740;-31
2022/11/01 00:08:17;;;;;;;13.23;3.13;;;;;;;14.69;91.42;100801.19;5033639;28;105323;-32
2022/11/01 00:10:43;;;;;;;10.65;3.42;;;;;;;14.71;91.20;100804.69;5035666;27;96784;-31
2022/11/01 00:13:08;;;;;;;10.82;4.18;;;;;;;14.75;90.90;100802.56;5033866;27;114644;-32
2022/11/01 00:15:33;;;;;;;8.50;2.92;;;;;;;14.78;91.08;100811.38;5033990;27;114016;-32
2022/11/01 00:17:58;;;;;;;8.00;3.85;;;;;;;14.79;91.01;100807.66;5034779;27;102081;-32
2022/11/01 00:20:24;;;;;;;9.23;3.38;;;;;;;14.86;90.93;100800.72;5035096;28;101110;-31
2022/11/01 00:22:49;;;;;;;9.63;3.42;;;;;;;14.92;90.69;100795.75;5034924;28;104149;-32
2022/11/01 00:25:14;;;;;;;8.30;3.40;;;;;;;14.92;90.96;100784.84;5034510;28;112369;-31
2022/11/01 00:27:40;;;;;;;7.63;3.53;;;;;;;14.97;90.74;100788.06;5035088;28;96509;-31
2022/11/01 00:30:05;;;;;;;11.73;4.05;;;;;;;14.96;90.73;100780.88;5035439;27;97172;-31
2022/11/01 00:32:31;;;;;;;7.93;3.40;;;;;;;14.98;90.42;100771.56;5034765;27;100815;-32
2022/11/01 00:34:56;;;;;;;11.43;4.32;;;;;;;14.99;90.43;100773.31;5034237;28;121546;-31
2022/11/01 00:37:21;;;;;;;7.05;3.20;;;;;;;15.01;90.35;100776.78;5034504;28;108814;-32
2022/11/01 00:39:46;;;;;;;9.88;3.92;;;;;;;15.03;90.04;100772.06;5034689;27;101647;-32
2022/11/01 00:42:12;;;;;;;9.18;3.17;;;;;;;15.01;89.92;100776.78;5034230;28;116803;-33
2022/11/01 00:44:37;;;;;;;10.77;3.50;;;;;;;15.05;89.94;100782.88;5034032;28;113709;-31
2022/11/01 00:47:02;;;;;;;8.82;3.78;;;;;;;15.05;89.74;100777.41;5034654;27;102050;-31
2022/11/01 00:49:28;;;;;;;12.07;3.88;;;;;;;15.06;89.84;100780.03;5034944;28;96928;-31
2022/11/01 00:51:53;;;;;;;11.77;3.45;;;;;;;15.05;90.33;100770.09;5034445;27;99487;-32
2022/11/01 00:54:18;;;;;;;11.02;3.45;;;;;;;15.09;89.99;100770.72;5034422;28;119497;-33
2022/11/01 00:56:43;;;;;;;7.50;3.80;;;;;;;15.15;90.09;100769.34;5034779;27;96873;-34
2022/11/01 00:59:09;;;;;;;7.53;3.05;;;;;;;15.18;89.66;100769.97;5034302;28;111319;-31
2022/11/01 01:01:34;;;;;;;10.35;3.88;;;;;;;15.19;89.82;100766.22;5034250;27;97985;-32
2022/11/01 01:03:59;;;;;;;7.55;2.90;;;;;;;15.24;89.72;100763.97;5034381;28;105399;-31
2022/11/01 01:06:25;;;;;;;6.60;3.15;;;;;;;15.26;89.68;100755.69;5034887;27;96777;-33
2022/11/01 01:08:50;;;;;;;9.52;3.28;;;;;;;15.26;89.79;100755.69;5035047;28;96720;-32
2022/11/01 01:11:15;;;;;;;5.68;3.20;;;;;;;15.27;89.81;100758.25;5034603;27;97301;-31
2022/11/01 01:13:41;;;;;;;8.82;3.45;;;;;;;15.29;89.77;100750.81;5034256;27;97846;-32
2022/11/01 01:16:11;;;;;;;4.43;2.67;;;;;;;15.33;89.83;100745.13;5036176;27;96773;-32
2022/11/01 01:18:36;;;;;;;9.05;3.42;;;;;;;15.33;89.78;100751.44;5038506;27;96832;-31
2022/11/01 01:21:03;;;;;;;11.77;3.67;;;;;;;15.35;90.06;100748.56;5038132;27;97933;-31
2022/11/01 01:23:28;;;;;;;7.47;3.15;;;;;;;15.36;90.03;100744.88;5036397;28;100561;-33
2022/11/01 01:25:53;;;;;;;8.73;3.33;;;;;;;15.40;89.93;100746.34;5037414;27;96694;-33
2022/11/01 01:28:19;;;;;;;6.57;2.38;;;;;;;15.38;90.48;100749.19;5037466;27;104303;-32
2022/11/01 01:30:44;;;;;;;10.35;3.03;;;;;;;15.39;90.66;100742.72;5038128;27;97363;-31
2022/11/01 01:33:11;;;;;;;7.93;3.20;;;;;;;15.40;90.67;100743.63;5037509;27;107703;-31
2022/11/01 01:35:37;;;;;;;5.35;3.00;;;;;;;15.44;90.47;100747.81;5037936;28;96733;-32
2022/11/01 01:38:03;;;;;;;5.13;2.50;;;;;;;15.46;90.88;100746.69;5036467;28;96854;-31
2022/11/01 01:40:28;;;;;;;8.18;3.38;;;;;;;15.51;90.79;100751.75;5037500;27;99309;-31
2022/11/01 01:42:53;;;;;;;8.20;2.70;;;;;;;15.50;90.71;100747.31;5037749;27;97424;-31
2022/11/01 01:45:37;;;;;;;9.55;3.67;;;;;;;15.56;90.87;100754.09;5037812;27;96854;-31
2022/11/01 01:48:22;;;;;;;5.03;2.75;;;;;;;15.57;90.88;100743.06;5036337;28;97068;-31
2022/11/01 01:50:58;;;;;;;6.35;2.83;;;;;;;15.59;90.81;100743.81;5035422;28;101235;-32
2022/11/01 01:53:52;;;;;;;7.65;3.45;;;;;;;15.63;90.78;100738.94;5035898;27;101137;-32
2022/11/01 01:56:19;;;;;;;5.07;2.70;;;;;;;15.69;90.46;100746.63;5034838;27;96872;-33
2022/11/01 01:58:55;;;;;;;5.93;2.55;;;;;;;15.71;90.20;100739.19;5036145;28;96857;-31
2022/11/01 02:01:21;;;;;;;7.13;2.97;;;;;;;15.73;89.98;100730.84;5035903;27;101568;-31
2022/11/01 02:03:47;;;;;;;9.65;3.03;;;;;;;15.75;89.90;100739.78;5035508;28;100885;-32
2022/11/01 02:06:18;;;;;;;7.32;2.65;;;;;;;15.78;89.93;100731.31;5037709;27;96664;-33
2022/11/01 02:08:47;;;;;;;7.93;2.67;;;;;;;15.80;89.67;100732.97;5036391;28;96901;-32
2022/11/01 02:11:15;;;;;;;7.85;2.70;;;;;;;15.83;89.53;100727.22;5035755;28;101671;-33
2022/11/01 02:13:40;;;;;;;11.27;3.13;;;;;;;15.82;89.46;100735.53;5035702;28;100525;-31
2022/11/01 02:16:29;;;;;;;6.97;2.90;;;;;;;15.86;89.16;100748.81;5036464;27;96797;-31
2022/11/01 02:19:09;;;;;;;8.57;2.70;;;;;;;15.90;88.89;100761.22;5035898;28;96889;-32
2022/11/01 02:21:48;;;;;;;4.03;1.85;;;;;;;15.90;88.63;100754.88;5035527;28;101226;-33
2022/11/01 02:24:44;;;;;;;9.98;2.88;;;;;;;15.93;88.33;100760.09;5035521;28;100980;-32
2022/11/01 02:27:16;;;;;;;7.82;2.13;;;;;;;15.95;87.74;100770.88;5035779;28;96562;-32
2022/11/01 02:30:04;;;;;;;7.90;2.70;;;;;;;15.99;87.73;100780.53;5035675;27;96907;-32
2022/11/01 02:32:32;;;;;;;6.10;3.10;;;;;;;15.96;87.34;100778.94;5035361;28;100839;-31
2022/11/01 02:35:07;;;;;;;5.63;2.92;;;;;;;15.97;87.80;100785.25;5036769;28;99071;-31
2022/11/01 02:37:42;;;;;;;6.57;2.60;;;;;;;15.96;87.73;100780.81;5037206;28;96558;-32
2022/11/01 02:40:18;;;;;;;8.38;2.50;;;;;;;15.96;87.38;100786.25;5035672;28;96706;-33
2022/11/01 02:42:47;;;;;;;5.68;2.40;;;;;;;15.94;87.75;100791.84;5034897;28;100884;-31
2022/11/01 02:45:27;;;;;;;6.18;2.90;;;;;;;15.95;87.93;100799.06;5034977;28;100660;-33
2022/11/01 02:48:01;;;;;;;10.55;2.22;;;;;;;15.93;88.08;100810.13;5035630;28;96645;-32
2022/11/01 02:50:40;;;;;;;10.45;2.70;;;;;;;15.90;88.28;100815.84;5035473;28;96958;-32
2022/11/01 02:53:06;;;;;;;6.78;2.05;;;;;;;15.89;88.35;100818.69;5036573;27;97602;-32
2022/11/01 02:55:34;;;;;;;7.82;2.58;;;;;;;15.85;88.37;100822.69;5034836;27;100466;-32
2022/11/01 02:58:04;;;;;;;4.55;2.00;;;;;;;15.81;87.26;100816.63;5036512;28;96641;-32
2022/11/01 03:00:34;;;;;;;7.55;2.28;;;;;;;15.79;86.68;100834.13;5037078;27;96776;-32
2022/11/01 03:03:25;;;;;;;5.57;1.70;;;;;;;15.68;86.07;100844.06;5034877;28;99317;-32
2022/11/01 03:06:00;;;;;;;7.13;0.93;;;;;;;15.59;83.87;100836.63;5034815;28;100446;-31
2022/11/01 03:08:31;;;;;;;2.47;1.50;;;;;;;15.49;83.94;100833.81;5035938;27;96589;-31
2022/11/01 03:11:14;;;;;;;2.07;1.20;;;;;;;15.45;83.59;100842.38;5035210;28;96765;-31
2022/11/01 03:13:52;;;;;;;3.33;1.08;;;;;;;15.37;84.33;100855.75;5034743;28;101215;-33
2022/11/01 03:16:33;;;;;;;1.30;0.60;;;;;;;15.30;83.05;100855.38;5033742;28;100985;-31
2022/11/01 03:19:03;;;;;;;1.15;0.70;;;;;;;15.19;82.36;100869.06;5035121;28;96630;-32
2022/11/01 03:21:36;;;;;;;1.67;0.85;;;;;;;15.13;80.48;100861.34;5036318;27;96796;-32
2022/11/01 03:24:07;;;;;;;2.40;0.82;;;;;;;15.10;80.41;100880.72;5034536;28;101347;-32
2022/11/01 03:26:36;;;;;;;0.63;0.50;;;;;;;15.04;81.03;100862.94;5036264;28;97947;-32
2022/11/01 03:29:07;;;;;;;2.33;0.52;;;;;;;14.98;81.41;100877.97;5034561;28;96781;-32
2022/11/01 03:31:37;;;;;;;2.20;0.47;;;;;;;14.93;82.02;100882.06;5034902;28;96717;-33
2022/11/01 03:34:08;;;;;;;2.10;0.30;;;;;;;14.89;82.07;100881.41;5033915;28;100848;-32
2022/11/01 03:36:39;;;;;;;5.80;0.90;;;;;;;14.83;82.05;100890.97;5034362;28;100845;-32
2022/11/01 03:39:12;;;;;;;0.32;0.30;;;;;;;14.79;80.64;100889.47;5033999;27;96603;-32
2022/11/01 03:41:43;;;;;;;2.60;0.30;;;;;;;14.77;81.37;100899.63;5034518;28;96820;-31
2022/11/01 03:44:11;;;;;;;0.65;0.43;;;;;;;14.72;82.04;100904.56;5034373;28;101245;-34
2022/11/01 03:46:37;;;;;;;0.30;0.28;;;;;;;14.68;81.46;100907.66;5034072;28;101259;-32
2022/11/01 03:49:03;;;;;;;2.33;0.55;;;;;;;14.59;81.05;100906.53;5035862;27;96702;-31
2022/11/01 03:51:28;;;;;;;1.15;0.52;;;;;;;14.58;81.07;100912.94;5036101;27;96933;-32
2022/11/01 03:53:53;;;;;;;1.20;0.60;;;;;;;14.53;79.53;100929.63;5035410;27;99223;-32
2022/11/01 03:56:19;;;;;;;4.03;0.88;;;;;;;14.52;79.36;100930.63;5035139;27;97836;-32
2022/11/01 03:58:45;;;;;;;2.33;0.55;;;;;;;14.48;79.41;100933.69;5033906;28;96442;-31
2022/11/01 04:01:13;;;;;;;5.57;0.82;;;;;;;14.40;79.23;100937.88;5035595;27;96823;-31
2022/11/01 04:03:38;;;;;;;3.67;0.43;;;;;;;14.38;79.77;100942.56;5033795;28;101091;-32
2022/11/01 04:06:04;;;;;;;0.57;0.30;;;;;;;14.38;78.41;100953.47;5035084;27;99142;-32
2022/11/01 04:08:30;;;;;;;5.47;0.75;;;;;;;14.34;78.22;100948.38;5035393;27;96534;-31
2022/11/01 04:10:56;;;;;;;1.83;0.63;;;;;;;14.28;78.11;100963.34;5033969;28;96918;-33
2022/11/01 04:13:21;;;;;;;1.98;0.45;;;;;;;14.26;77.79;100969.91;5035387;27;97929;-32
2022/11/01 04:21:18;;;;;;;3.85;0.68;;;;;;;14.13;76.42;100984.41;5035557;28;96648;-31
2022/11/01 04:23:44;;;;;;;0.77;0.22;;;;;;;14.11;76.09;100996.41;5033126;28;101623;-31
2022/11/01 04:26:12;;;;;;;2.35;0.20;;;;;;;14.10;76.97;100984.66;5033487;27;101055;-31
2022/11/01 04:28:37;;;;;;;0.80;0.15;;;;;;;14.03;76.81;100976.06;5033866;28;96515;-32
2022/11/01 04:31:03;;;;;;;3.53;0.30;;;;;;;14.00;77.12;100983.59;5035443;27;96770;-32
2022/11/01 04:33:29;;;;;;;2.67;0.82;;;;;;;13.96;75.43;100993.81;5033477;27;101315;-32
2022/11/01 04:35:54;;;;;;;1.95;0.32;;;;;;;13.93;76.34;100998.66;5034822;27;97759;-32
2022/11/01 04:38:19;;;;;;;1.48;0.32;;;;;;;13.90;76.38;100997.03;5034659;27;107830;-31
2022/11/01 04:40:45;;;;;;;3.03;0.73;;;;;;;13.85;75.57;100988.31;5034781;28;109889;-32
2022/11/01 04:43:14;;;;;;;2.50;0.70;;;;;;;13.82;75.89;101007.59;5034516;27;99291;-32
2022/11/01 04:45:39;;;;;;;5.20;0.85;;;;;;;13.75;76.06;101000.84;5034570;27;99162;-32
2022/11/01 04:48:06;;;;;;;2.60;0.77;;;;;;;13.70;74.85;100997.59;5034557;27;96541;-33
2022/11/01 04:50:33;;;;;;;7.32;0.70;;;;;;;13.65;75.61;101003.38;5032426;28;96992;-32
2022/11/01 04:52:59;;;;;;;5.57;0.65;;;;;;;13.62;74.93;100995.44;5033176;28;101394;-32
2022/11/01 04:55:28;;;;;;;1.13;0.30;;;;;;;13.59;75.47;101001.09;5033008;28;101090;-31
2022/11/01 04:57:54;;;;;;;1.35;0.47;;;;;;;13.57;75.65;101003.06;5033451;28;96651;-31
2022/11/01 05:00:21;;;;;;;1.98;0.35;;;;;;;13.52;74.55;101002.53;5033405;28;96924;-32
2022/11/01 05:02:47;;;;;;;1.90;0.43;;;;;;;13.51;76.08;100993.47;5032807;28;101134;-32
2022/11/01 05:05:12;;;;;;;4.18;0.65;;;;;;;13.43;73.19;100998.59;5034925;27;97812;-32
2022/11/01 05:07:38;;;;;;;5.13;0.60;;;;;;;13.42;73.42;100998.69;5034896;28;97094;-32
2022/11/01 05:10:04;;;;;;;2.50;0.98;;;;;;;13.41;74.28;100991.53;5034800;28;96771;-32
2022/11/01 05:12:30;;;;;;;3.17;0.52;;;;;;;13.38;73.35;100992.63;5032437;28;101074;-33
2022/11/01 05:14:55;;;;;;;1.00;0.40;;;;;;;13.36;74.48;100990.00;5033917;27;101328;-33
2022/11/01 05:17:21;;;;;;;0.43;0.35;;;;;;;13.32;73.06;100998.47;5034451;28;96607;-32
2022/11/01 05:19:49;;;;;;;5.75;0.55;;;;;;;13.32;71.68;101006.63;5034480;27;96829;-33
2022/11/01 05:22:15;;;;;;;3.38;0.52;;;;;;;13.32;71.45;101007.53;5034188;28;107588;-32
2022/11/01 05:24:40;;;;;;;9.63;0.60;;;;;;;13.31;72.34;101005.78;5034279;27;97892;-31
2022/11/01 05:27:05;;;;;;;2.45;0.77;;;;;;;13.30;72.11;101001.31;5034632;27;96462;-33
2022/11/01 05:29:30;;;;;;;3.15;0.70;;;;;;;13.26;72.79;101005.19;5034451;28;105818;-32
2022/11/01 05:31:56;;;;;;;5.32;0.65;;;;;;;13.29;72.86;101020.47;5033769;27;99812;-31
2022/11/01 05:34:21;;;;;;;9.00;0.75;;;;;;;13.25;71.94;101003.47;5034150;28;109995;-33
2022/11/01 05:36:46;;;;;;;6.85;0.98;;;;;;;13.22;71.39;100998.22;5034284;27;96484;-32
2022/11/01 05:39:12;;;;;;;1.80;0.55;;;;;;;13.24;70.85;101007.16;5034240;27;96612;-32
2022/11/01 05:41:39;;;;;;;2.67;0.50;;;;;;;13.23;71.82;101031.72;5034449;27;97470;-32
2022/11/01 05:44:04;;;;;;;1.58;0.95;;;;;;;13.21;70.68;101029.13;5034146;27;97834;-32
2022/11/01 05:46:29;;;;;;;1.98;0.68;;;;;;;13.22;70.71;101030.88;5033844;27;96604;-32
2022/11/01 05:48:55;;;;;;;1.13;0.40;;;;;;;13.23;70.80;101053.50;5032484;27;99843;-33
2022/11/01 05:51:20;;;;;;;3.63;0.55;;;;;;;13.23;70.06;101038.06;5033967;28;101092;-33
2022/11/01 05:53:49;;;;;;;3.88;0.30;;;;;;;13.23;69.59;101042.59;5034068;28;107369;-33
2022/11/01 05:56:16;;;;;;;1.48;0.50;;;;;;;13.23;70.93;101057.13;5033937;27;96845;-32
2022/11/01 05:58:41;;;;;;;3.63;0.55;;;;;;;13.24;70.68;101025.34;5032719;28;96982;-32
2022/11/01 06:01:07;;;;;;;3.08;0.60;;;;;;;13.24;69.13;101044.38;5033993;27;97834;-32
2022/11/01 06:03:33;;;;;;;4.78;0.82;;;;;;;13.22;70.03;101043.59;5035929;28;100896;-33
2022/11/01 06:05:59;;;;;;;2.22;0.60;;;;;;;13.21;70.52;101058.19;5037507;27;96554;-32
2022/11/01 06:08:25;;;;;;;5.40;0.80;;;;;;;13.14;69.98;101055.03;5037251;27;106034;-32
2022/11/01 06:10:51;;;;;;;4.55;1.02;;;;;;;13.14;69.45;101058.59;5035599;28;100967;-34
2022/11/01 06:13:17;;;;;;;5.88;1.38;;;;;;;13.12;69.07;101068.72;5035743;28;100746;-32
2022/11/01 06:15:43;;;;;;;3.58;1.10;;;;;;;13.10;69.62;101070.66;5035004;28;96668;-32
2022/11/01 06:18:08;;;;;;;2.10;0.60;;;;;;;13.06;69.59;101065.53;5037815;27;96647;-33
2022/11/01 06:20:35;;;;;;;0.50;0.43;;;;;;;13.07;69.79;101083.63;5037155;27;97878;-32
2022/11/01 06:23:07;;;;;;;4.18;1.23;;;;;;;13.04;69.96;101092.84;5036950;27;97831;-32
2022/11/01 06:25:32;;;;;;;;;;;;;;;13.02;70.58;101083.06;5035694;28;96643;-32
2022/11/01 06:27:58;;;;;;;3.00;1.00;;;;;;;12.98;70.24;101086.97;5037621;28;96871;-31
2022/11/01 06:30:23;;;;;;;0.85;0.77;;;;;;;12.91;69.96;101083.78;5036774;27;98054;-32
2022/11/01 06:32:48;;;;;;;7.95;0.93;;;;;;;12.89;70.58;101083.88;5036957;28;98396;-33
2022/11/01 06:35:14;;;;;;;3.03;0.68;;;;;;;12.89;69.45;101097.47;5036907;27;96546;-32
2022/11/01 06:37:39;;;;;;;3.38;0.65;;;;;;;12.87;69.49;101090.38;5037269;27;96803;-32
2022/11/01 06:40:05;;;;;;;2.75;0.80;;;;;;;12.88;70.36;101100.31;5036606;28;102267;-34
2022/11/01 06:42:31;;;;;;;3.22;0.80;;;;;;;12.86;70.68;101108.56;5035456;28;102419;-32
2022/11/01 06:44:56;;;;;;;5.43;0.73;;;;;;;12.87;71.02;101123.00;5036474;27;96733;-32
2022/11/01 06:47:21;;;;;;;3.75;0.90;;;;;;;12.82;70.91;101120.59;5036894;28;96781;-32
2022/11/01 06:49:46;;;;;;;4.68;1.05;;;;;;;12.81;70.50;101118.88;5036170;27;97769;-31
2022/11/01 06:52:12;;;;;;;2.13;0.75;;;;;;;12.80;71.15;101118.97;5036105;28;112997;-33
2022/11/01 06:54:37;;;;;;;2.25;0.90;;;;;;;12.83;71.35;101137.81;5036362;27;104065;-33
2022/11/01 06:57:02;;;;;;;5.65;0.98;;;;;;;12.79;70.69;101139.84;5036298;28;104254;-32
2022/11/01 06:59:28;;;;;;;1.27;0.47;;;;;;;12.81;71.18;101150.63;5035914;27;99250;-32
2022/11/01 07:01:53;;;;;;;5.82;0.90;;;;;;;12.80;70.85;101154.31;5035860;28;118396;-34
2022/11/01 07:04:20;;;;;;;5.85;0.95;;;;;;;12.79;71.65;101163.44;5036272;27;98801;-32
2022/11/01 07:06:45;;;;;;;6.03;1.77;;;;;;;12.76;70.80;101164.53;5036979;27;96741;-31
2022/11/01 07:09:10;;;;;;;7.57;1.20;;;;;;;12.77;71.66;101173.53;5036198;27;99157;-33
2022/11/01 07:11:36;;;;;;;2.80;0.90;;;;;;;12.77;72.00;101188.00;5035790;28;113225;-32
2022/11/01 07:14:01;;;;;;;3.17;0.90;;;;;;;12.75;72.08;101195.38;5034954;27;96593;-33
2022/11/01 07:16:27;;;;;;;4.88;0.90;;;;;;;12.74;71.71;101197.22;5035562;27;96835;-31
2022/11/01 07:18:53;;;;;;;1.77;0.57;;;;;;;12.75;71.85;101198.09;5034775;28;101204;-32
2022/11/01 07:21:18;;;;;;;4.13;0.65;;;;;;;12.73;71.93;101191.91;5035974;28;99266;-32
2022/11/01 07:23:44;;;;;;;7.93;1.08;;;;;;;12.72;71.72;101220.91;5036521;27;96580;-32
2022/11/01 07:26:09;;;;;;;6.78;1.35;;;;;;;12.72;72.01;101207.31;5035933;28;100410;-32
2022/11/01 07:28:34;;;;;;;5.00;0.98;;;;;;;12.73;72.48;101219.09;5035787;27;97684;-32
2022/11/01 07:31:00;;;;;;;1.63;0.45;;;;;;;12.73;72.22;101225.41;5036188;27;99154;-32
2022/11/01 07:33:26;;;;;;;3.20;0.90;;;;;;;12.73;71.67;101222.69;5036428;27;96612;-33
2022/11/01 07:35:51;;;;;;;2.67;0.90;;;;;;;12.70;71.99;101231.03;5034641;28;96825;-32
2022/11/01 07:38:17;;;;;;;8.52;1.20;;;;;;;12.72;72.27;101234.50;5035324;27;96766;-33
2022/11/01 07:40:48;;;;;;;2.65;0.43;;;;;;;12.74;72.65;101228.97;5035814;28;97356;-32
2022/11/01 07:43:13;;;;;;;4.40;0.60;;;;;;;12.73;72.43;101252.59;5035987;28;96704;-31
2022/11/01 07:45:38;;;;;;;10.85;1.48;;;;;;;12.72;72.70;101248.09;5036044;28;98159;-32
2022/11/01 07:48:09;;;;;;;2.85;0.80;;;;;;;12.74;72.78;101257.03;5035432;28;114353;-32
2022/11/01 07:50:35;;;;;;;2.88;0.60;;;;;;;12.73;72.74;101257.16;5035605;27;99107;-32
2022/11/01 07:53:12;;;;;;;7.60;0.60;;;;;;;12.73;72.74;101249.84;5034516;28;96778;-32
2022/11/01 07:55:38;;;;;;;4.88;0.80;;;;;;;12.71;73.15;101251.78;5035963;28;96701;-33
2022/11/01 07:58:04;;;;;;;9.32;1.35;;;;;;;12.73;73.48;101268.88;5034108;28;101019;-31
2022/11/01 08:00:30;;;;;;;2.03;0.47;;;;;;;12.74;73.67;101265.19;5033967;28;100948;-32
2022/11/01 08:03:04;;;;;;;0.63;0.25;;;;;;;12.73;73.11;101262.59;5033902;28;96476;-32
2022/11/01 08:05:30;;;;;;;7.32;0.85;;;;;;;12.75;73.64;101277.81;5033978;28;96829;-34
2022/11/01 08:07:56;;;;;;;8.18;1.05;;;;;;;12.76;73.55;101275.97;5033869;28;100920;-31
2022/11/01 08:10:22;;;;;;;5.57;1.02;;;;;;;12.70;72.78;101269.09;5035055;27;98757;-32
2022/11/01 08:12:47;;;;;;;3.35;0.57;;;;;;;12.72;73.12;101285.28;5034227;28;96538;-32
2022/11/01 08:15:12;;;;;;;7.95;1.15;;;;;;;12.73;73.44;101282.47;5035521;28;96905;-31
2022/11/01 08:17:38;;;;;;;4.68;0.57;;;;;;;12.74;73.60;101295.09;5033937;27;97410;-32
2022/11/01 08:20:04;;;;;;;4.70;0.77;;;;;;;12.73;73.27;101290.63;5035105;28;109008;-32
2022/11/01 08:22:29;;;;;;;3.90;0.57;;;;;;;12.72;73.08;101305.19;5035387;27;96678;-33
2022/11/01 08:24:54;;;;;;;2.72;0.88;;;;;;;12.74;73.51;101303.25;5035308;27;96830;-32
2022/11/01 08:27:20;;;;;;;5.10;0.98;;;;;;;12.75;73.72;101305.00;5034461;27;97378;-31
2022/11/01 08:29:45;;;;;;;4.35;0.68;;;;;;;12.74;73.61;101296.94;5035209;27;97846;-31
2022/11/01 08:32:10;;;;;;;7.05;0.90;;;;;;;12.75;73.38;101314.97;5035419;28;96576;-32
2022/11/01 08:34:36;;;;;;;1.60;0.50;;;;;;;12.75;73.51;101305.00;5034269;27;96831;-32
2022/11/01 08:37:01;;;;;;;5.80;0.90;;;;;;;12.79;73.36;101321.13;5034772;27;99187;-33
2022/11/01 08:39:26;;;;;;;7.93;1.38;;;;;;;12.80;73.50;101325.56;5034630;27;97471;-32
2022/11/01 08:41:53;;;;;;;8.63;1.05;;;;;;;12.81;73.81;101319.19;5033608;28;96636;-34
2022/11/01 08:44:19;;;;;;;1.20;0.50;;;;;;;12.84;73.70;101330.72;5034142;28;96950;-33
2022/11/01 08:46:45;;;;;;;3.53;0.60;;;;;;;12.85;73.49;101337.91;5033275;28;98798;-32
2022/11/01 08:49:12;;;;;;;8.70;0.93;;;;;;;12.92;73.73;101343.84;5033382;28;101286;-32
2022/11/01 08:51:37;;;;;;;6.03;1.38;;;;;;;12.88;73.55;101336.84;5031595;28;96869;-33
2022/11/01 08:54:04;;;;;;;7.40;0.80;;;;;;;12.89;73.90;101347.59;5034661;27;96858;-33
2022/11/01 08:56:30;;;;;;;9.15;1.05;;;;;;;12.95;74.06;101349.94;5032580;28;100855;-32
2022/11/01 08:58:56;;;;;;;5.43;1.08;;;;;;;13.00;73.52;101341.50;5032827;28;100719;-32
2022/11/01 09:01:25;;;;;;;2.10;0.73;;;;;;;13.08;73.75;101344.59;5033223;28;97157;-32
2022/11/01 09:03:54;;;;;;;2.60;0.80;;;;;;;13.12;73.79;101359.75;5033422;28;96834;-32
2022/11/01 09:06:19;;;;;;;6.53;0.85;;;;;;;13.25;73.60;101364.41;5018505;28;101490;-33
2022/11/01 09:08:45;;;;;;;5.20;0.82;;;;;;;13.26;73.56;101375.19;5014544;28;98412;-31
2022/11/01 09:11:10;;;;;;;8.77;0.90;;;;;;;13.30;73.15;101381.31;5014082;28;112471;-32
2022/11/01 09:13:35;;;;;;;8.65;1.00;;;;;;;13.39;73.13;101375.28;5014616;28;96842;-32
2022/11/01 09:16:05;;;;;;;7.72;1.00;;;;;;;13.51;73.19;101376.34;5027436;28;100122;-32
2022/11/01 09:18:30;;;;;;;4.80;0.95;;;;;;;13.58;72.94;101374.97;5033025;28;101283;-33
2022/11/01 09:20:56;;;;;;;5.63;1.00;;;;;;;13.62;72.31;101376.50;5034889;27;96574;-32
2022/11/01 09:23:21;;;;;;;6.68;0.85;;;;;;;13.72;72.38;101398.56;5034201;27;96887;-32
2022/11/01 09:25:47;;;;;;;2.83;0.60;;;;;;;13.79;72.27;101399.91;5032410;28;101124;-32
2022/11/01 09:28:13;;;;;;;3.08;0.75;;;;;;;13.89;71.80;101390.13;5034246;27;97192;-33
2022/11/01 09:30:39;;;;;;;2.95;0.73;;;;;;;14.01;71.85;101419.31;5034614;28;96569;-33
2022/11/01 09:33:05;;;;;;;8.68;0.90;;;;;;;14.07;71.71;101398.94;5032573;28;96945;-33
2022/11/01 09:35:32;;;;;;;7.88;1.20;;;;;;;14.12;71.82;101415.84;5033709;27;98033;-31
2022/11/01 09:37:58;;;;;;;6.68;0.80;;;;;;;14.20;71.27;101407.13;5035495;28;100876;-32
2022/11/01 09:40:26;;;;;;;6.72;1.50;;;;;;;14.34;71.34;101417.09;5033860;28;96743;-33
2022/11/01 09:42:52;;;;;;;0.95;0.50;;;;;;;14.45;70.84;101409.94;5036154;28;96892;-32
2022/11/01 09:45:21;;;;;;;6.85;0.68;;;;;;;14.59;70.47;101421.78;5035926;28;100964;-32
2022/11/01 09:47:52;;;;;;;2.67;0.85;;;;;;;14.74;69.97;101423.44;5036191;28;100954;-31
2022/11/01 09:50:25;;;;;;;1.42;0.43;;;;;;;14.88;70.07;101416.16;5036395;28;96739;-32
2022/11/01 09:52:54;;;;;;;6.35;1.02;;;;;;;15.02;69.69;101430.56;5035527;27;96670;-32
2022/11/01 09:55:44;;;;;;;2.78;0.75;;;;;;;15.05;69.17;101408.50;5035149;27;97975;-32
2022/11/01 09:58:21;;;;;;;5.32;1.23;;;;;;;15.22;69.08;101423.66;4994023;27;97808;-33
2022/11/01 10:00:58;;;;;;;4.68;1.15;;;;;;;15.35;69.13;101414.56;5035043;28;96649;-32
2022/11/01 10:03:38;;;;;;;10.05;1.00;;;;;;;15.07;69.00;101433.81;5035568;28;96752;-32
2022/11/01 10:06:18;;;;;;;5.43;0.82;;;;;;;15.11;68.72;101418.13;5034679;27;101187;-31
2022/11/01 10:08:57;;;;;;;3.25;0.70;;;;;;;15.29;69.06;101430.41;5035956;28;101016;-32
2022/11/01 10:11:58;;;;;;;2.53;0.60;;;;;;;15.40;68.37;101439.72;5035333;28;96688;-32
2022/11/01 10:14:54;;;;;;;3.22;0.50;;;;;;;15.45;66.38;101437.53;5037839;27;96716;-31
2022/11/01 10:17:48;;;;;;;2.33;0.68;;;;;;;15.58;67.17;101449.28;5036538;27;99347;-31
2022/11/01 10:20:14;;;;;;;8.02;1.17;;;;;;;15.62;67.30;101439.88;5035748;28;101029;-31
2022/11/01 10:22:43;;;;;;;0.77;0.30;;;;;;;15.79;67.04;101451.47;5035849;28;96791;-32
2022/11/01 10:25:23;;;;;;;4.72;0.88;;;;;;;15.85;65.59;101438.22;5036276;28;96880;-33
2022/11/01 10:28:16;;;;;;;4.38;1.10;;;;;;;15.88;66.00;101448.03;5035176;28;101425;-31
2022/11/01 10:30:47;;;;;;;3.20;0.98;;;;;;;15.83;66.26;101459.31;5037061;27;98296;-32
2022/11/01 10:33:39;;;;;;;3.60;1.05;;;;;;;15.99;65.74;101455.44;5035305;28;96676;-32
2022/11/01 10:36:13;;;;;;;2.58;0.70;;;;;;;16.10;65.63;101463.72;5035624;28;96768;-32
2022/11/01 10:38:44;;;;;;;2.83;0.55;;;;;;;16.05;64.34;101461.31;5035291;28;101444;-32
2022/11/01 10:41:19;;;;;;;5.53;1.13;;;;;;;16.12;64.17;101456.28;5035361;28;100574;-31
2022/11/01 10:43:48;;;;;;;5.00;1.13;;;;;;;16.22;64.81;101450.97;5035671;28;96536;-31
2022/11/01 10:46:27;;;;;;;5.70;0.50;;;;;;;16.30;64.31;101473.13;5035369;28;96821;-32
2022/11/01 10:48:57;;;;;;;6.18;1.30;;;;;;;16.23;64.56;101461.81;5035095;27;100377;-32
2022/11/01 10:51:25;;;;;;;7.15;0.90;;;;;;;16.21;64.08;101471.97;5035560;28;99340;-31
2022/11/01 10:53:54;;;;;;;2.67;0.63;;;;;;;16.28;64.08;101472.38;5037018;27;96674;-32
2022/11/01 10:56:28;;;;;;;2.75;0.52;;;;;;;16.41;63.95;101473.19;5035189;27;96913;-31
2022/11/01 10:59:16;;;;;;;6.55;1.60;;;;;;;16.44;63.34;101470.22;5034692;28;99895;-31
2022/11/01 11:01:43;;;;;;;3.92;0.82;;;;;;;16.44;63.58;101462.00;5035020;28;101203;-32
2022/11/01 11:04:15;;;;;;;7.05;1.70;;;;;;;16.52;63.50;101454.09;5035385;28;96543;-32
2022/11/01 11:06:42;;;;;;;2.05;0.75;;;;;;;16.69;62.62;101458.28;5035257;28;96618;-32
2022/11/01 11:09:31;;;;;;;2.17;0.45;;;;;;;16.69;62.60;101454.66;5034635;28;104616;-31
2022/11/01 11:12:20;;;;;;;5.47;1.13;;;;;;;16.54;61.54;101453.97;5036103;27;98676;-32
2022/11/01 11:14:53;;;;;;;5.95;0.90;;;;;;;16.70;63.15;101468.22;5034886;28;96620;-32
2022/11/01 11:17:25;;;;;;;2.47;0.80;;;;;;;16.77;62.15;101465.88;5034842;28;96804;-33
2022/11/01 11:19:53;;;;;;;;;;;;;;;16.47;63.12;101456.31;5034927;28;100862;-32
2022/11/01 11:22:21;;;;;;;3.05;0.93;;;;;;;16.35;63.23;101460.88;5036323;27;97341;-33
2022/11/01 11:24:48;;;;;;;3.08;0.80;;;;;;;16.49;62.84;101461.66;5034338;28;96692;-31
2022/11/01 11:27:22;;;;;;;4.78;1.55;;;;;;;16.70;63.41;101448.19;5036446;27;96770;-33
2022/11/01 11:29:53;;;;;;;5.38;0.65;;;;;;;16.88;62.44;101456.88;5035758;28;99392;-32
2022/11/01 11:32:24;;;;;;;5.97;1.00;;;;;;;16.92;60.98;101456.50;5034526;28;100977;-31
2022/11/01 11:35:13;;;;;;;1.05;0.43;;;;;;;17.03;61.74;101461.13;5034780;28;96655;-32